メインページ
METAR-TAF:

METAR-TAF

空港 :

テグシガルパ, ホンジュラス

トンコンティン国際空港

緯度: 14-03N, 経度: 087-13W, 海抜: 994m

現時点の気象観測

当レポートは20分前の19:00(UTC)に作成
東/北東の風 2kt
気温 25°C
湿度 39%
気圧 1020 hPa
視程10km以上
高度3000ftの雲はほとんどない, 塔状積雲.
高度3200ftの雲は散在している

METAR: MHTG 251900Z 06002KT 9999 FEW030TCU SCT032 25/10 Q1020 A3012 NOSIG

時間: 13:20 (19:20 UTC)

予報

当レポートは2時間55分前の16:25(UTC)に作成
予報は25日の 18時(UTC)から 26日の 18時(UTC)まで有効
北東の風 6kt
視程10km以上
高度3000ftの雲はほとんどない
26日の 06時(UTC)から 26日の 08時(UTC)まで徐々に
の風 6kt
高度2600ftの雲は散在している
26日の 12時(UTC)から 26日の 14時(UTC)まで徐々に
北東の風 5kt
高度3000ftの雲はほとんどない

TAF: MHTG 251625Z 2518/2618 05006KT 9999 FEW030 TX29/2520Z TN12/2612Z BECMG 2606/2608 35006KT SCT026 BECMG 2612/2614 04005KT FEW030

4,000以上の空港の気象観測と天気予報(METAR報とTAF報)

利用可能な観測所は地図上に黄色い丸と赤い丸で示す。

丸の上にカーソルを重ねると観測所名を参照できる。

次にクリックすると気象観測と天気予報を参照できる。

マップの切り替え:黒色「×」印の緑ボタンをクリックして拡大、「-」印の緑ボタンをクリックして縮小、緑色の三角印をクリックして隣りの地図に切り替え


METAR-TAF: